首页
METAR-TAF:

METAR-TAF

机场 :

休伦, 南达科他州, 美国

纬度: 44-23-17N, 经度: 098-13-42W, 海拔: 392米

当前天气观测

该预报发布于19分钟前的00:55 UTC
风速6节,风向北转东北
温度 17°C
湿度 72%
气压 1011 hPa
能見度: 16.1公里
阴天层高于10000英尺

METAR: KHON 210055Z AUTO 03006KT 10SM OVC100 17/12 A2985 RMK AO2 SLP109 T01720122

时间: 20:14 (01:14 UTC)

预报

该预报发布于1小时和32分钟前的23:42 UTC
预报有效从21日的 00点(UTC)到 21日的 24点(UTC)
风速9节,风向
能見度: 10公里
多云层高于10000英尺
从 21日的 0500点(UTC)
风速6节,风向
能見度: 10公里
多云层高于5000英尺, 积雨云.
小阵雨, 附近有雷暴
从 21日的 0900点(UTC)
风速11节,风向,有时为20节阵风
能見度: 8.0公里
散云层高于1500英尺
阴天层高于4500英尺, 积雨云.
阵雨, 轻雾, 附近有雷暴
从 21日的 1200点(UTC)
风速15节,风向,有时为25节阵风
能見度: 4.8公里
多云层高于1500英尺
从 21日的 2000点(UTC)
风速24节,风向,有时为36节阵风
能見度: 10公里
阴天层高于2500英尺

TAF: KHON 202342Z 2100/2124 36009KT P6SM BKN100 FM210500 36006KT P6SM -SHRA VCTS BKN050CB FM210900 01011G20KT 5SM SHRA BR VCTS SCT015 OVC045CB FM211200 01015G25KT 3SM RA BKN015 FM212000 35024G36KT P6SM OVC025

超过4000个机场的气象观测和天气预报(METAR&TAF报告)。

可查询的气象台以黄色和红色小点在地图上表示。

将鼠标移到小点上方,可查看气象台名称。

然后点击查看天气观测和预报。

如需切换地图:点击带黑十字的绿色按钮放大地图;点击带横线的绿色按钮缩小地图;或者点击绿色箭头查看邻近地区的地图。


METAR-TAF: